sensor_id;sensor_type;location;lat;lon;timestamp;noise_LAeq;noise_LA_min;noise_LA_max;noise_LA01;noise_LA95
69620;Laerm;57654;51.434;5.984;2022-07-29T00:00:03;36.77;33.12;39.20;;
69620;Laerm;57654;51.434;5.984;2022-07-29T00:00:13;36.78;33.53;39.26;;
69620;Laerm;57654;51.434;5.984;2022-07-29T00:00:24;36.94;33.28;39.36;;
69620;Laerm;57654;51.434;5.984;2022-07-29T00:00:34;36.87;33.53;46.51;;
69620;Laerm;57654;51.434;5.984;2022-07-29T00:00:44;36.41;33.84;38.32;;
69620;Laerm;57654;51.434;5.984;2022-07-29T00:00:54;36.90;34.08;39.14;;
69620;Laerm;57654;51.434;5.984;2022-07-29T00:01:05;39.28;33.94;57.68;;
69620;Laerm;57654;51.434;5.984;2022-07-29T00:01:15;36.84;33.58;39.45;;
69620;Laerm;57654;51.434;5.984;2022-07-29T00:01:25;37.05;34.55;40.04;;
69620;Laerm;57654;51.434;5.984;2022-07-29T00:01:36;36.95;33.50;39.91;;
69620;Laerm;57654;51.434;5.984;2022-07-29T00:01:47;36.92;33.75;40.02;;
69620;Laerm;57654;51.434;5.984;2022-07-29T00:01:58;36.92;33.26;39.54;;
69620;Laerm;57654;51.434;5.984;2022-07-29T00:02:08;36.81;33.82;39.64;;
69620;Laerm;57654;51.434;5.984;2022-07-29T00:02:18;36.82;31.96;39.69;;
69620;Laerm;57654;51.434;5.984;2022-07-29T00:02:28;36.73;32.91;39.52;;
69620;Laerm;57654;51.434;5.984;2022-07-29T00:02:39;36.68;32.88;38.81;;
69620;Laerm;57654;51.434;5.984;2022-07-29T00:02:49;36.71;32.95;39.39;;
69620;Laerm;57654;51.434;5.984;2022-07-29T00:02:59;36.71;32.41;40.35;;
69620;Laerm;57654;51.434;5.984;2022-07-29T00:03:10;36.90;33.90;39.09;;
69620;Laerm;57654;51.434;5.984;2022-07-29T00:03:20;36.75;33.18;39.52;;
69620;Laerm;57654;51.434;5.984;2022-07-29T00:03:30;36.71;32.94;39.18;;
69620;Laerm;57654;51.434;5.984;2022-07-29T00:03:41;36.93;33.26;39.78;;
69620;Laerm;57654;51.434;5.984;2022-07-29T00:03:51;36.99;33.28;40.98;;
69620;Laerm;57654;51.434;5.984;2022-07-29T00:04:01;36.61;33.38;39.24;;
69620;Laerm;57654;51.434;5.984;2022-07-29T00:04:11;36.45;33.38;39.30;;
69620;Laerm;57654;51.434;5.984;2022-07-29T00:04:22;36.58;33.82;39.11;;
69620;Laerm;57654;51.434;5.984;2022-07-29T00:04:34;36.88;33.70;39.67;;
69620;Laerm;57654;51.434;5.984;2022-07-29T00:04:44;36.67;32.61;39.49;;
69620;Laerm;57654;51.434;5.984;2022-07-29T00:04:54;36.42;33.32;38.99;;
69620;Laerm;57654;51.434;5.984;2022-07-29T00:05:05;36.42;33.21;38.60;;
69620;Laerm;57654;51.434;5.984;2022-07-29T00:05:15;36.94;33.37;39.26;;
69620;Laerm;57654;51.434;5.984;2022-07-29T00:05:25;36.55;33.48;39.74;;
69620;Laerm;57654;51.434;5.984;2022-07-29T00:05:36;36.48;33.76;38.49;;
69620;Laerm;57654;51.434;5.984;2022-07-29T00:05:46;36.47;34.02;39.28;;
69620;Laerm;57654;51.434;5.984;2022-07-29T00:05:56;36.33;33.63;39.53;;
69620;Laerm;57654;51.434;5.984;2022-07-29T00:06:06;36.63;33.54;40.51;;
69620;Laerm;57654;51.434;5.984;2022-07-29T00:06:17;37.00;33.74;39.73;;
69620;Laerm;57654;51.434;5.984;2022-07-29T00:06:27;36.93;33.40;39.00;;
69620;Laerm;57654;51.434;5.984;2022-07-29T00:06:37;36.76;33.90;39.98;;
69620;Laerm;57654;51.434;5.984;2022-07-29T00:06:48;36.77;32.55;39.61;;
69620;Laerm;57654;51.434;5.984;2022-07-29T00:06:58;36.65;33.35;39.37;;
69620;Laerm;57654;51.434;5.984;2022-07-29T00:07:08;36.67;33.78;39.52;;
69620;Laerm;57654;51.434;5.984;2022-07-29T00:07:18;36.42;32.04;38.55;;
69620;Laerm;57654;51.434;5.984;2022-07-29T00:07:29;36.49;33.86;39.01;;
69620;Laerm;57654;51.434;5.984;2022-07-29T00:07:39;36.46;34.26;39.61;;
69620;Laerm;57654;51.434;5.984;2022-07-29T00:07:50;36.62;33.51;40.19;;
69620;Laerm;57654;51.434;5.984;2022-07-29T00:08:00;36.71;32.99;39.32;;
69620;Laerm;57654;51.434;5.984;2022-07-29T00:08:10;36.76;33.88;39.33;;
69620;Laerm;57654;51.434;5.984;2022-07-29T00:08:20;36.72;32.71;38.93;;
69620;Laerm;57654;51.434;5.984;2022-07-29T00:08:31;36.47;31.94;39.33;;
69620;Laerm;57654;51.434;5.984;2022-07-29T00:08:41;36.30;33.06;39.47;;
69620;Laerm;57654;51.434;5.984;2022-07-29T00:08:51;36.24;33.01;38.78;;
69620;Laerm;57654;51.434;5.984;2022-07-29T00:09:02;36.40;33.27;39.04;;
69620;Laerm;57654;51.434;5.984;2022-07-29T00:09:12;36.47;33.40;38.63;;
69620;Laerm;57654;51.434;5.984;2022-07-29T00:09:22;36.32;33.15;39.30;;
69620;Laerm;57654;51.434;5.984;2022-07-29T00:09:32;36.45;32.17;39.47;;
69620;Laerm;57654;51.434;5.984;2022-07-29T00:09:43;36.44;33.30;38.60;;
69620;Laerm;57654;51.434;5.984;2022-07-29T00:09:53;36.13;32.80;38.98;;
69620;Laerm;57654;51.434;5.984;2022-07-29T00:10:03;36.23;32.56;39.33;;
69620;Laerm;57654;51.434;5.984;2022-07-29T00:10:14;36.84;32.68;39.75;;
69620;Laerm;57654;51.434;5.984;2022-07-29T00:10:24;36.83;32.68;39.96;;
69620;Laerm;57654;51.434;5.984;2022-07-29T00:10:34;36.34;31.88;40.03;;
69620;Laerm;57654;51.434;5.984;2022-07-29T00:10:45;36.68;32.93;39.70;;
69620;Laerm;57654;51.434;5.984;2022-07-29T00:10:55;36.59;32.62;39.86;;
69620;Laerm;57654;51.434;5.984;2022-07-29T00:11:05;36.47;31.75;39.29;;
69620;Laerm;57654;51.434;5.984;2022-07-29T00:11:15;36.92;33.27;40.11;;
69620;Laerm;57654;51.434;5.984;2022-07-29T00:11:26;37.00;32.33;44.15;;
69620;Laerm;57654;51.434;5.984;2022-07-29T00:11:36;36.54;33.51;39.28;;
69620;Laerm;57654;51.434;5.984;2022-07-29T00:11:46;36.76;34.08;38.97;;
69620;Laerm;57654;51.434;5.984;2022-07-29T00:11:58;36.66;33.23;39.12;;
69620;Laerm;57654;51.434;5.984;2022-07-29T00:12:09;36.65;33.54;38.93;;
69620;Laerm;57654;51.434;5.984;2022-07-29T00:12:20;36.39;34.08;38.96;;
69620;Laerm;57654;51.434;5.984;2022-07-29T00:12:30;36.68;34.09;39.10;;
69620;Laerm;57654;51.434;5.984;2022-07-29T00:12:41;36.27;34.08;38.89;;
69620;Laerm;57654;51.434;5.984;2022-07-29T00:12:51;36.29;33.24;38.63;;
69620;Laerm;57654;51.434;5.984;2022-07-29T00:13:01;36.61;34.14;39.37;;
69620;Laerm;57654;51.434;5.984;2022-07-29T00:13:11;36.81;33.80;39.33;;
69620;Laerm;57654;51.434;5.984;2022-07-29T00:13:22;36.62;33.50;38.94;;
69620;Laerm;57654;51.434;5.984;2022-07-29T00:13:32;36.72;33.42;39.35;;
69620;Laerm;57654;51.434;5.984;2022-07-29T00:13:42;36.59;32.93;39.44;;
69620;Laerm;57654;51.434;5.984;2022-07-29T00:13:52;36.57;33.23;38.87;;
69620;Laerm;57654;51.434;5.984;2022-07-29T00:14:04;36.32;33.46;38.98;;
69620;Laerm;57654;51.434;5.984;2022-07-29T00:14:14;36.36;33.64;38.85;;
69620;Laerm;57654;51.434;5.984;2022-07-29T00:14:24;36.56;33.71;39.53;;
69620;Laerm;57654;51.434;5.984;2022-07-29T00:14:35;36.39;33.55;38.45;;
69620;Laerm;57654;51.434;5.984;2022-07-29T00:14:45;36.30;33.49;38.64;;
69620;Laerm;57654;51.434;5.984;2022-07-29T00:14:55;36.65;33.42;38.66;;
69620;Laerm;57654;51.434;5.984;2022-07-29T00:15:06;36.61;33.69;39.57;;
69620;Laerm;57654;51.434;5.984;2022-07-29T00:15:17;36.39;33.40;38.64;;
69620;Laerm;57654;51.434;5.984;2022-07-29T00:15:27;36.35;33.24;38.86;;
69620;Laerm;57654;51.434;5.984;2022-07-29T00:15:38;36.62;33.54;40.12;;
69620;Laerm;57654;51.434;5.984;2022-07-29T00:15:48;36.60;33.06;38.61;;
69620;Laerm;57654;51.434;5.984;2022-07-29T00:15:59;36.61;33.64;39.42;;
69620;Laerm;57654;51.434;5.984;2022-07-29T00:16:09;36.44;32.70;38.75;;
69620;Laerm;57654;51.434;5.984;2022-07-29T00:16:19;36.72;33.94;39.15;;
69620;Laerm;57654;51.434;5.984;2022-07-29T00:16:29;36.64;33.34;39.25;;
69620;Laerm;57654;51.434;5.984;2022-07-29T00:16:40;36.51;34.23;39.64;;
69620;Laerm;57654;51.434;5.984;2022-07-29T00:16:50;36.74;33.85;39.00;;
69620;Laerm;57654;51.434;5.984;2022-07-29T00:17:00;36.42;33.13;38.87;;
69620;Laerm;57654;51.434;5.984;2022-07-29T00:17:10;36.50;33.12;38.99;;
69620;Laerm;57654;51.434;5.984;2022-07-29T00:17:21;36.35;33.12;38.75;;
69620;Laerm;57654;51.434;5.984;2022-07-29T00:17:32;36.55;33.79;38.85;;
69620;Laerm;57654;51.434;5.984;2022-07-29T00:17:44;36.78;34.25;41.17;;
69620;Laerm;57654;51.434;5.984;2022-07-29T00:17:54;36.70;34.45;38.96;;
69620;Laerm;57654;51.434;5.984;2022-07-29T00:18:04;36.69;34.00;38.76;;
69620;Laerm;57654;51.434;5.984;2022-07-29T00:18:14;36.37;33.46;39.11;;
69620;Laerm;57654;51.434;5.984;2022-07-29T00:18:25;35.85;32.66;38.20;;
69620;Laerm;57654;51.434;5.984;2022-07-29T00:18:35;35.97;32.98;38.90;;
69620;Laerm;57654;51.434;5.984;2022-07-29T00:18:45;36.32;32.08;38.69;;
69620;Laerm;57654;51.434;5.984;2022-07-29T00:18:56;36.57;33.28;39.44;;
69620;Laerm;57654;51.434;5.984;2022-07-29T00:19:06;36.46;33.60;39.41;;
69620;Laerm;57654;51.434;5.984;2022-07-29T00:19:16;36.30;32.76;38.44;;
69620;Laerm;57654;51.434;5.984;2022-07-29T00:19:26;36.19;32.98;40.48;;
69620;Laerm;57654;51.434;5.984;2022-07-29T00:19:36;36.18;33.09;38.33;;
69620;Laerm;57654;51.434;5.984;2022-07-29T00:19:47;36.10;33.08;37.87;;
69620;Laerm;57654;51.434;5.984;2022-07-29T00:19:57;36.08;33.23;38.29;;
69620;Laerm;57654;51.434;5.984;2022-07-29T00:20:07;36.34;33.39;40.08;;
69620;Laerm;57654;51.434;5.984;2022-07-29T00:20:18;36.65;33.08;39.20;;
69620;Laerm;57654;51.434;5.984;2022-07-29T00:20:28;36.65;32.72;39.56;;
69620;Laerm;57654;51.434;5.984;2022-07-29T00:20:38;36.61;33.39;39.33;;
69620;Laerm;57654;51.434;5.984;2022-07-29T00:20:49;36.56;33.32;39.67;;
69620;Laerm;57654;51.434;5.984;2022-07-29T00:20:59;36.68;32.89;39.03;;
69620;Laerm;57654;51.434;5.984;2022-07-29T00:21:09;36.71;33.72;38.79;;
69620;Laerm;57654;51.434;5.984;2022-07-29T00:21:19;36.74;34.05;38.96;;
69620;Laerm;57654;51.434;5.984;2022-07-29T00:21:30;36.54;34.17;38.69;;
69620;Laerm;57654;51.434;5.984;2022-07-29T00:21:40;36.68;33.82;38.57;;
69620;Laerm;57654;51.434;5.984;2022-07-29T00:21:50;36.91;34.03;39.55;;
69620;Laerm;57654;51.434;5.984;2022-07-29T00:22:00;36.72;34.10;39.02;;
69620;Laerm;57654;51.434;5.984;2022-07-29T00:22:11;36.97;33.92;39.14;;
69620;Laerm;57654;51.434;5.984;2022-07-29T00:22:21;36.77;33.32;38.79;;
69620;Laerm;57654;51.434;5.984;2022-07-29T00:22:31;36.76;33.77;39.23;;
69620;Laerm;57654;51.434;5.984;2022-07-29T00:22:42;36.82;33.08;39.34;;
69620;Laerm;57654;51.434;5.984;2022-07-29T00:22:52;36.84;34.37;39.13;;
69620;Laerm;57654;51.434;5.984;2022-07-29T00:23:03;36.58;33.17;39.08;;
69620;Laerm;57654;51.434;5.984;2022-07-29T00:23:13;36.40;32.97;38.53;;
69620;Laerm;57654;51.434;5.984;2022-07-29T00:23:23;36.32;34.04;38.86;;
69620;Laerm;57654;51.434;5.984;2022-07-29T00:23:33;36.41;33.80;38.71;;
69620;Laerm;57654;51.434;5.984;2022-07-29T00:23:44;36.45;33.77;38.78;;
69620;Laerm;57654;51.434;5.984;2022-07-29T00:23:54;36.70;33.40;39.02;;
69620;Laerm;57654;51.434;5.984;2022-07-29T00:24:04;36.51;33.50;41.59;;
69620;Laerm;57654;51.434;5.984;2022-07-29T00:24:15;36.79;33.88;40.02;;
69620;Laerm;57654;51.434;5.984;2022-07-29T00:24:25;36.71;34.18;39.68;;
69620;Laerm;57654;51.434;5.984;2022-07-29T00:24:35;36.56;33.67;38.53;;
69620;Laerm;57654;51.434;5.984;2022-07-29T00:24:46;36.35;34.11;38.31;;
69620;Laerm;57654;51.434;5.984;2022-07-29T00:24:57;36.56;33.92;39.10;;
69620;Laerm;57654;51.434;5.984;2022-07-29T00:25:07;36.49;33.75;38.59;;
69620;Laerm;57654;51.434;5.984;2022-07-29T00:25:18;36.42;33.75;38.53;;
69620;Laerm;57654;51.434;5.984;2022-07-29T00:25:28;36.52;33.48;39.11;;
69620;Laerm;57654;51.434;5.984;2022-07-29T00:25:38;36.54;34.23;38.89;;
69620;Laerm;57654;51.434;5.984;2022-07-29T00:25:49;36.40;33.68;39.65;;
69620;Laerm;57654;51.434;5.984;2022-07-29T00:25:59;36.27;33.13;38.49;;
69620;Laerm;57654;51.434;5.984;2022-07-29T00:26:09;36.10;33.65;38.27;;
69620;Laerm;57654;51.434;5.984;2022-07-29T00:26:19;36.04;34.14;39.50;;
69620;Laerm;57654;51.434;5.984;2022-07-29T00:26:30;35.97;32.67;38.09;;
69620;Laerm;57654;51.434;5.984;2022-07-29T00:26:41;36.09;33.36;38.28;;
69620;Laerm;57654;51.434;5.984;2022-07-29T00:26:51;35.75;31.37;38.11;;
69620;Laerm;57654;51.434;5.984;2022-07-29T00:27:02;31.67;29.68;35.83;;
69620;Laerm;57654;51.434;5.984;2022-07-29T00:27:12;32.52;30.21;35.17;;
69620;Laerm;57654;51.434;5.984;2022-07-29T00:27:22;37.28;32.22;43.58;;
69620;Laerm;57654;51.434;5.984;2022-07-29T00:27:33;41.27;37.45;45.16;;
69620;Laerm;57654;51.434;5.984;2022-07-29T00:27:43;42.43;38.58;45.77;;
69620;Laerm;57654;51.434;5.984;2022-07-29T00:27:55;44.92;40.79;50.99;;
69620;Laerm;57654;51.434;5.984;2022-07-29T00:28:05;48.01;44.71;51.89;;
69620;Laerm;57654;51.434;5.984;2022-07-29T00:28:16;50.08;47.33;57.74;;
69620;Laerm;57654;51.434;5.984;2022-07-29T00:28:26;51.33;48.76;54.27;;
69620;Laerm;57654;51.434;5.984;2022-07-29T00:28:36;50.12;45.95;55.27;;
69620;Laerm;57654;51.434;5.984;2022-07-29T00:28:47;44.99;41.58;49.71;;
69620;Laerm;57654;51.434;5.984;2022-07-29T00:28:58;43.09;41.31;45.68;;
69620;Laerm;57654;51.434;5.984;2022-07-29T00:29:08;43.76;40.83;49.99;;
69620;Laerm;57654;51.434;5.984;2022-07-29T00:29:18;43.54;41.66;45.96;;
69620;Laerm;57654;51.434;5.984;2022-07-29T00:29:28;44.39;42.86;47.28;;
69620;Laerm;57654;51.434;5.984;2022-07-29T00:29:39;45.30;42.43;51.06;;
69620;Laerm;57654;51.434;5.984;2022-07-29T00:29:49;46.16;43.23;50.61;;
69620;Laerm;57654;51.434;5.984;2022-07-29T00:29:59;43.10;41.01;53.57;;
69620;Laerm;57654;51.434;5.984;2022-07-29T00:30:09;43.51;41.19;49.38;;
69620;Laerm;57654;51.434;5.984;2022-07-29T00:30:20;42.81;39.90;47.65;;
69620;Laerm;57654;51.434;5.984;2022-07-29T00:30:30;39.81;36.96;44.99;;
69620;Laerm;57654;51.434;5.984;2022-07-29T00:30:40;38.90;36.93;42.61;;
69620;Laerm;57654;51.434;5.984;2022-07-29T00:30:52;42.62;39.41;46.32;;
69620;Laerm;57654;51.434;5.984;2022-07-29T00:31:03;40.22;38.60;42.99;;
69620;Laerm;57654;51.434;5.984;2022-07-29T00:31:14;40.21;37.91;45.96;;
69620;Laerm;57654;51.434;5.984;2022-07-29T00:31:25;39.43;37.52;42.76;;
69620;Laerm;57654;51.434;5.984;2022-07-29T00:31:36;39.62;37.83;46.21;;
69620;Laerm;57654;51.434;5.984;2022-07-29T00:31:46;38.59;36.61;44.68;;
69620;Laerm;57654;51.434;5.984;2022-07-29T00:31:56;37.35;35.66;40.25;;
69620;Laerm;57654;51.434;5.984;2022-07-29T00:32:06;38.45;36.49;46.08;;
69620;Laerm;57654;51.434;5.984;2022-07-29T00:32:16;38.85;37.45;40.67;;
69620;Laerm;57654;51.434;5.984;2022-07-29T00:32:27;37.67;35.17;42.52;;
69620;Laerm;57654;51.434;5.984;2022-07-29T00:32:37;35.64;33.57;40.22;;
69620;Laerm;57654;51.434;5.984;2022-07-29T00:32:47;35.02;33.41;41.06;;
69620;Laerm;57654;51.434;5.984;2022-07-29T00:32:57;34.86;32.84;38.10;;
69620;Laerm;57654;51.434;5.984;2022-07-29T00:33:08;35.35;33.09;39.03;;
69620;Laerm;57654;51.434;5.984;2022-07-29T00:33:18;34.99;32.69;38.69;;
69620;Laerm;57654;51.434;5.984;2022-07-29T00:33:28;33.67;31.81;40.04;;
69620;Laerm;57654;51.434;5.984;2022-07-29T00:33:39;33.58;31.96;38.08;;
69620;Laerm;57654;51.434;5.984;2022-07-29T00:33:49;35.78;32.39;39.02;;
69620;Laerm;57654;51.434;5.984;2022-07-29T00:33:59;36.94;34.05;39.26;;
69620;Laerm;57654;51.434;5.984;2022-07-29T00:34:09;35.46;32.26;52.48;;
69620;Laerm;57654;51.434;5.984;2022-07-29T00:34:40;34.62;31.69;38.30;;
69620;Laerm;57654;51.434;5.984;2022-07-29T00:35:09;34.66;31.82;51.43;;
69620;Laerm;57654;51.434;5.984;2022-07-29T00:35:37;33.83;31.18;40.24;;
69620;Laerm;57654;51.434;5.984;2022-07-29T00:35:54;37.23;34.48;40.35;;
69620;Laerm;57654;51.434;5.984;2022-07-29T00:36:04;38.95;35.76;43.22;;
69620;Laerm;57654;51.434;5.984;2022-07-29T00:36:14;38.13;34.85;42.04;;
69620;Laerm;57654;51.434;5.984;2022-07-29T00:36:25;36.85;33.17;39.82;;
69620;Laerm;57654;51.434;5.984;2022-07-29T00:36:35;34.64;32.46;37.30;;
69620;Laerm;57654;51.434;5.984;2022-07-29T00:36:45;34.22;31.92;43.45;;
69620;Laerm;57654;51.434;5.984;2022-07-29T00:36:55;36.50;31.27;49.08;;
69620;Laerm;57654;51.434;5.984;2022-07-29T00:37:06;33.78;31.94;36.84;;
69620;Laerm;57654;51.434;5.984;2022-07-29T00:37:16;34.24;32.18;37.31;;
69620;Laerm;57654;51.434;5.984;2022-07-29T00:37:26;34.88;32.20;37.54;;
69620;Laerm;57654;51.434;5.984;2022-07-29T00:37:37;36.95;33.78;40.98;;
69620;Laerm;57654;51.434;5.984;2022-07-29T00:37:47;37.55;35.80;42.33;;
69620;Laerm;57654;51.434;5.984;2022-07-29T00:37:57;37.82;35.46;41.16;;
69620;Laerm;57654;51.434;5.984;2022-07-29T00:38:07;36.64;33.89;40.84;;
69620;Laerm;57654;51.434;5.984;2022-07-29T00:38:18;37.78;34.53;39.48;;
69620;Laerm;57654;51.434;5.984;2022-07-29T00:38:28;35.43;33.71;39.22;;
69620;Laerm;57654;51.434;5.984;2022-07-29T00:38:39;34.09;31.87;38.70;;
69620;Laerm;57654;51.434;5.984;2022-07-29T00:38:51;37.67;35.24;42.23;;
69620;Laerm;57654;51.434;5.984;2022-07-29T00:39:01;36.85;34.82;38.76;;
69620;Laerm;57654;51.434;5.984;2022-07-29T00:39:12;34.43;32.54;37.15;;
69620;Laerm;57654;51.434;5.984;2022-07-29T00:39:22;34.30;32.43;39.04;;
69620;Laerm;57654;51.434;5.984;2022-07-29T00:39:32;35.21;32.93;36.97;;
69620;Laerm;57654;51.434;5.984;2022-07-29T00:39:43;34.51;32.60;36.61;;
69620;Laerm;57654;51.434;5.984;2022-07-29T00:39:53;34.05;31.75;37.18;;
69620;Laerm;57654;51.434;5.984;2022-07-29T00:40:03;34.18;31.14;36.67;;
69620;Laerm;57654;51.434;5.984;2022-07-29T00:40:14;33.75;30.84;38.33;;
69620;Laerm;57654;51.434;5.984;2022-07-29T00:40:24;37.05;34.20;41.37;;
69620;Laerm;57654;51.434;5.984;2022-07-29T00:40:34;35.57;32.84;38.94;;
69620;Laerm;57654;51.434;5.984;2022-07-29T00:40:45;33.83;31.44;35.70;;
69620;Laerm;57654;51.434;5.984;2022-07-29T00:40:55;36.03;32.35;42.30;;
69620;Laerm;57654;51.434;5.984;2022-07-29T00:41:06;34.45;32.20;41.30;;
69620;Laerm;57654;51.434;5.984;2022-07-29T00:41:16;34.88;32.65;38.07;;
69620;Laerm;57654;51.434;5.984;2022-07-29T00:41:27;35.65;33.71;37.74;;
69620;Laerm;57654;51.434;5.984;2022-07-29T00:41:37;34.18;31.74;38.18;;
69620;Laerm;57654;51.434;5.984;2022-07-29T00:41:47;34.92;31.18;38.14;;
69620;Laerm;57654;51.434;5.984;2022-07-29T00:41:58;33.79;31.46;38.01;;
69620;Laerm;57654;51.434;5.984;2022-07-29T00:42:08;34.17;32.02;36.52;;
69620;Laerm;57654;51.434;5.984;2022-07-29T00:42:19;33.47;30.82;35.67;;
69620;Laerm;57654;51.434;5.984;2022-07-29T00:42:30;33.70;31.66;37.25;;
69620;Laerm;57654;51.434;5.984;2022-07-29T00:42:48;33.77;31.80;36.28;;
69620;Laerm;57654;51.434;5.984;2022-07-29T00:42:59;33.59;30.88;36.00;;
69620;Laerm;57654;51.434;5.984;2022-07-29T00:43:10;33.23;30.92;35.61;;
69620;Laerm;57654;51.434;5.984;2022-07-29T00:43:20;32.78;31.05;35.45;;
69620;Laerm;57654;51.434;5.984;2022-07-29T00:43:30;32.83;30.79;35.61;;
69620;Laerm;57654;51.434;5.984;2022-07-29T00:43:41;33.23;31.18;35.69;;
69620;Laerm;57654;51.434;5.984;2022-07-29T00:43:51;34.79;32.08;38.03;;
69620;Laerm;57654;51.434;5.984;2022-07-29T00:44:01;42.78;36.39;53.62;;
69620;Laerm;57654;51.434;5.984;2022-07-29T00:44:12;50.87;45.14;55.53;;
69620;Laerm;57654;51.434;5.984;2022-07-29T00:44:22;54.47;50.75;58.35;;
69620;Laerm;57654;51.434;5.984;2022-07-29T00:44:36;60.29;54.97;67.86;;
69620;Laerm;57654;51.434;5.984;2022-07-29T00:44:46;61.87;57.85;65.58;;
69620;Laerm;57654;51.434;5.984;2022-07-29T00:44:56;58.28;55.29;62.15;;
69620;Laerm;57654;51.434;5.984;2022-07-29T00:45:06;61.18;56.09;65.81;;
69620;Laerm;57654;51.434;5.984;2022-07-29T00:45:17;66.83;62.23;73.20;;
69620;Laerm;57654;51.434;5.984;2022-07-29T00:45:27;67.24;64.95;69.85;;
69620;Laerm;57654;51.434;5.984;2022-07-29T00:45:37;64.83;61.87;67.66;;
69620;Laerm;57654;51.434;5.984;2022-07-29T00:45:48;62.04;58.24;66.15;;
69620;Laerm;57654;51.434;5.984;2022-07-29T00:45:58;60.24;57.40;63.42;;
69620;Laerm;57654;51.434;5.984;2022-07-29T00:46:08;61.22;59.08;64.60;;
69620;Laerm;57654;51.434;5.984;2022-07-29T00:46:19;60.67;58.89;65.97;;
69620;Laerm;57654;51.434;5.984;2022-07-29T00:46:29;60.70;59.02;65.24;;
69620;Laerm;57654;51.434;5.984;2022-07-29T00:46:39;59.96;58.22;65.62;;
69620;Laerm;57654;51.434;5.984;2022-07-29T00:46:50;61.16;58.52;64.19;;
69620;Laerm;57654;51.434;5.984;2022-07-29T00:47:00;60.97;58.93;64.82;;
69620;Laerm;57654;51.434;5.984;2022-07-29T00:47:11;60.46;58.79;64.77;;
69620;Laerm;57654;51.434;5.984;2022-07-29T00:47:21;59.24;57.17;62.16;;
69620;Laerm;57654;51.434;5.984;2022-07-29T00:47:31;57.56;55.48;61.62;;
69620;Laerm;57654;51.434;5.984;2022-07-29T00:47:42;56.32;54.28;62.60;;
69620;Laerm;57654;51.434;5.984;2022-07-29T00:47:52;55.54;54.06;62.34;;
69620;Laerm;57654;51.434;5.984;2022-07-29T00:48:03;56.19;54.42;60.18;;
69620;Laerm;57654;51.434;5.984;2022-07-29T00:48:14;56.45;53.72;61.28;;
69620;Laerm;57654;51.434;5.984;2022-07-29T00:48:24;53.31;50.57;60.35;;
69620;Laerm;57654;51.434;5.984;2022-07-29T00:48:35;50.95;48.10;58.60;;
69620;Laerm;57654;51.434;5.984;2022-07-29T00:48:45;48.97;46.53;59.21;;
69620;Laerm;57654;51.434;5.984;2022-07-29T00:48:55;47.61;45.79;59.85;;
69620;Laerm;57654;51.434;5.984;2022-07-29T00:49:06;47.36;45.31;57.31;;
69620;Laerm;57654;51.434;5.984;2022-07-29T00:49:17;46.65;45.22;56.19;;
69620;Laerm;57654;51.434;5.984;2022-07-29T00:49:27;45.70;43.51;57.98;;
69620;Laerm;57654;51.434;5.984;2022-07-29T00:49:38;45.19;43.19;57.39;;
69620;Laerm;57654;51.434;5.984;2022-07-29T00:49:49;43.73;41.75;49.11;;
69620;Laerm;57654;51.434;5.984;2022-07-29T00:49:59;43.38;40.59;59.14;;
69620;Laerm;57654;51.434;5.984;2022-07-29T00:50:10;41.10;39.59;52.11;;
69620;Laerm;57654;51.434;5.984;2022-07-29T00:50:21;40.68;38.60;54.30;;
69620;Laerm;57654;51.434;5.984;2022-07-29T00:50:32;42.07;40.62;43.44;;
69620;Laerm;57654;51.434;5.984;2022-07-29T00:50:42;41.84;39.48;55.34;;
69620;Laerm;57654;51.434;5.984;2022-07-29T00:50:53;41.20;38.79;57.91;;
69620;Laerm;57654;51.434;5.984;2022-07-29T00:51:04;41.46;39.45;46.68;;
69620;Laerm;57654;51.434;5.984;2022-07-29T00:51:15;40.18;38.03;44.14;;
69620;Laerm;57654;51.434;5.984;2022-07-29T00:51:25;41.73;40.09;49.64;;
69620;Laerm;57654;51.434;5.984;2022-07-29T00:51:36;41.09;38.74;57.81;;
69620;Laerm;57654;51.434;5.984;2022-07-29T00:51:47;40.51;39.36;41.71;;
69620;Laerm;57654;51.434;5.984;2022-07-29T00:51:58;39.82;37.74;41.86;;
69620;Laerm;57654;51.434;5.984;2022-07-29T00:52:10;37.57;35.91;40.75;;
69620;Laerm;57654;51.434;5.984;2022-07-29T00:52:21;37.47;36.10;39.00;;
69620;Laerm;57654;51.434;5.984;2022-07-29T00:52:32;38.57;37.30;43.29;;
69620;Laerm;57654;51.434;5.984;2022-07-29T00:52:43;39.48;36.17;60.04;;
69620;Laerm;57654;51.434;5.984;2022-07-29T00:52:53;36.61;34.02;43.50;;
69620;Laerm;57654;51.434;5.984;2022-07-29T00:53:05;35.58;34.03;40.38;;
69620;Laerm;57654;51.434;5.984;2022-07-29T00:53:16;38.88;34.86;57.00;;
69620;Laerm;57654;51.434;5.984;2022-07-29T00:53:26;36.32;34.23;38.27;;
69620;Laerm;57654;51.434;5.984;2022-07-29T00:53:37;35.68;34.26;37.26;;
69620;Laerm;57654;51.434;5.984;2022-07-29T00:53:47;36.12;33.99;38.44;;
69620;Laerm;57654;51.434;5.984;2022-07-29T00:54:01;36.21;34.32;39.83;;
69620;Laerm;57654;51.434;5.984;2022-07-29T00:54:11;37.63;34.24;57.50;;
69620;Laerm;57654;51.434;5.984;2022-07-29T00:54:22;34.91;32.67;37.50;;
69620;Laerm;57654;51.434;5.984;2022-07-29T00:54:33;34.44;32.34;39.73;;
69620;Laerm;57654;51.434;5.984;2022-07-29T00:54:43;36.20;33.73;44.44;;
69620;Laerm;57654;51.434;5.984;2022-07-29T00:54:54;36.21;34.87;40.10;;
69620;Laerm;57654;51.434;5.984;2022-07-29T00:55:05;34.94;32.97;44.34;;
69620;Laerm;57654;51.434;5.984;2022-07-29T00:55:16;35.59;32.82;39.68;;
69620;Laerm;57654;51.434;5.984;2022-07-29T00:55:26;36.76;33.52;40.63;;
69620;Laerm;57654;51.434;5.984;2022-07-29T00:55:37;35.85;34.27;38.28;;
69620;Laerm;57654;51.434;5.984;2022-07-29T00:55:47;36.11;34.03;41.09;;
69620;Laerm;57654;51.434;5.984;2022-07-29T00:55:57;36.44;34.18;43.20;;
69620;Laerm;57654;51.434;5.984;2022-07-29T00:56:08;40.56;37.20;42.93;;
69620;Laerm;57654;51.434;5.984;2022-07-29T00:56:18;39.92;35.20;56.98;;
69620;Laerm;57654;51.434;5.984;2022-07-29T00:56:32;35.80;33.85;38.13;;
69620;Laerm;57654;51.434;5.984;2022-07-29T00:56:42;34.47;31.83;37.82;;
69620;Laerm;57654;51.434;5.984;2022-07-29T00:56:53;35.62;33.15;39.40;;
69620;Laerm;57654;51.434;5.984;2022-07-29T00:57:03;37.38;34.91;45.20;;
69620;Laerm;57654;51.434;5.984;2022-07-29T00:57:13;36.20;33.10;47.71;;
69620;Laerm;57654;51.434;5.984;2022-07-29T00:57:24;37.00;34.54;40.98;;
69620;Laerm;57654;51.434;5.984;2022-07-29T00:57:34;37.70;35.36;44.30;;
69620;Laerm;57654;51.434;5.984;2022-07-29T00:57:45;35.11;31.75;38.47;;
69620;Laerm;57654;51.434;5.984;2022-07-29T00:57:55;36.57;32.43;42.50;;
69620;Laerm;57654;51.434;5.984;2022-07-29T00:58:06;36.44;34.02;39.50;;
69620;Laerm;57654;51.434;5.984;2022-07-29T00:58:17;36.02;33.78;41.81;;
69620;Laerm;57654;51.434;5.984;2022-07-29T00:58:27;36.43;34.85;38.30;;
69620;Laerm;57654;51.434;5.984;2022-07-29T00:58:37;38.11;35.34;42.60;;
69620;Laerm;57654;51.434;5.984;2022-07-29T00:58:48;35.62;32.42;38.97;;
69620;Laerm;57654;51.434;5.984;2022-07-29T00:59:00;33.90;31.82;36.57;;
69620;Laerm;57654;51.434;5.984;2022-07-29T00:59:10;34.33;31.98;38.20;;
69620;Laerm;57654;51.434;5.984;2022-07-29T00:59:21;35.00;32.50;37.58;;
69620;Laerm;57654;51.434;5.984;2022-07-29T00:59:31;34.58;32.62;37.79;;
69620;Laerm;57654;51.434;5.984;2022-07-29T00:59:41;36.01;33.42;42.98;;